createdAt,value
2018-03-20T00:02:05.053Z,19.47
2018-03-20T00:04:32.650Z,18.23
2018-03-20T00:07:00.225Z,17.77
2018-03-20T00:09:28.589Z,18.77
2018-03-20T00:11:56.865Z,17.80
2018-03-20T00:14:24.467Z,18.80
2018-03-20T00:16:51.941Z,18.83
2018-03-20T00:19:19.459Z,19.17
2018-03-20T00:21:47.747Z,18.60
2018-03-20T00:24:15.313Z,18.80
2018-03-20T00:26:42.805Z,18.20
2018-03-20T00:29:10.281Z,17.87
2018-03-20T00:31:38.185Z,19.23
2018-03-20T00:34:06.753Z,18.13
2018-03-20T00:36:35.134Z,18.10
2018-03-20T00:39:03.371Z,18.20
2018-03-20T00:41:30.962Z,17.90
2018-03-20T00:43:59.541Z,17.60
2018-03-20T00:46:27.301Z,17.77
2018-03-20T00:48:54.965Z,17.67
2018-03-20T00:51:22.735Z,18.20
2018-03-20T00:53:51.104Z,17.13
2018-03-20T00:56:18.772Z,16.93
2018-03-20T00:58:46.533Z,17.93
2018-03-20T01:01:14.301Z,18.03
2018-03-20T01:03:42.609Z,17.20
2018-03-20T01:06:10.362Z,16.80
2018-03-20T01:08:38.816Z,17.87
2018-03-20T01:11:06.587Z,17.17
2018-03-20T01:13:34.350Z,17.03
2018-03-20T01:16:02.123Z,16.27
2018-03-20T01:18:29.682Z,16.53
2018-03-20T01:20:57.247Z,17.40
2018-03-20T01:23:25.481Z,17.27
2018-03-20T01:25:53.273Z,17.93
2018-03-20T01:28:20.834Z,16.90
2018-03-20T01:30:48.401Z,16.80
2018-03-20T01:33:16.169Z,16.07
2018-03-20T01:35:43.889Z,16.37
2018-03-20T01:38:11.389Z,16.40
2018-03-20T01:40:39.158Z,16.43
2018-03-20T01:43:07.629Z,17.33
2018-03-20T01:45:35.313Z,16.77
2018-03-20T01:48:03.682Z,16.57
2018-03-20T01:50:32.063Z,17.03
2018-03-20T01:53:12.426Z,16.73
2018-03-20T01:55:40.998Z,16.40
2018-03-20T01:58:08.773Z,16.20
2018-03-20T02:00:36.577Z,17.10
2018-03-20T02:03:04.203Z,17.33
2018-03-20T02:05:32.678Z,17.33
2018-03-20T02:08:00.445Z,16.70
2018-03-20T02:10:28.110Z,16.83
2018-03-20T02:12:56.486Z,17.73
2018-03-20T02:15:24.050Z,17.10
2018-03-20T02:17:52.729Z,16.43
2018-03-20T02:20:20.499Z,16.67
2018-03-20T02:22:48.881Z,17.83
2018-03-20T02:25:16.476Z,17.87
2018-03-20T02:27:44.102Z,17.37
2018-03-20T02:30:11.858Z,17.20
2018-03-20T02:32:40.343Z,16.50
2018-03-20T02:35:08.211Z,17.60
2018-03-20T02:37:35.978Z,17.10
2018-03-20T02:40:03.738Z,15.83
2018-03-20T02:42:31.411Z,16.23
2018-03-20T02:44:59.809Z,15.77
2018-03-20T02:47:27.455Z,15.40
2018-03-20T02:49:56.122Z,15.80
2018-03-20T02:52:23.881Z,16.27
2018-03-20T02:54:51.663Z,17.10
2018-03-20T02:57:20.137Z,16.23
2018-03-20T02:59:47.905Z,15.73
2018-03-20T03:02:16.231Z,16.57
2018-03-20T03:04:44.038Z,16.00
2018-03-20T03:07:11.607Z,16.00
2018-03-20T03:09:40.201Z,16.17
2018-03-20T03:12:08.450Z,15.97
2018-03-20T03:14:36.006Z,15.77
2018-03-20T03:17:03.686Z,16.87
2018-03-20T03:19:31.931Z,17.27
2018-03-20T03:21:59.405Z,16.90
2018-03-20T03:24:26.966Z,18.40
2018-03-20T03:26:54.522Z,16.20
2018-03-20T03:29:22.002Z,16.67
2018-03-20T03:31:50.247Z,15.17
2018-03-20T03:34:17.761Z,16.77
2018-03-20T03:36:45.415Z,17.27
2018-03-20T03:39:13.877Z,17.03
2018-03-20T03:41:41.345Z,17.50
2018-03-20T03:44:09.615Z,18.43
2018-03-20T03:46:37.894Z,17.37
2018-03-20T03:49:06.312Z,16.93
2018-03-20T03:51:33.781Z,18.43
2018-03-20T03:54:01.254Z,18.70
2018-03-20T03:56:28.740Z,17.87
2018-03-20T03:58:57.021Z,18.10
2018-03-20T04:01:25.612Z,17.13
2018-03-20T04:03:53.850Z,17.60
2018-03-20T04:06:21.355Z,16.10
2018-03-20T04:08:48.894Z,15.57
2018-03-20T04:11:16.490Z,15.03
2018-03-20T04:13:44.013Z,14.30
2018-03-20T04:16:11.773Z,12.87
2018-03-20T04:18:39.447Z,12.33
2018-03-20T04:21:08.027Z,14.03
2018-03-20T04:23:35.599Z,12.57
2018-03-20T04:26:03.830Z,13.00
2018-03-20T04:28:31.313Z,12.63
2018-03-20T04:30:58.785Z,11.83
2018-03-20T04:33:27.046Z,13.77
2018-03-20T04:35:55.526Z,12.43
2018-03-20T04:38:23.099Z,12.37
2018-03-20T04:40:51.342Z,12.10
2018-03-20T04:43:18.818Z,11.60
2018-03-20T04:45:46.377Z,12.37
2018-03-20T04:48:13.945Z,13.10
2018-03-20T04:50:42.191Z,13.37
2018-03-20T04:53:09.666Z,12.67
2018-03-20T04:55:37.136Z,12.70
2018-03-20T04:58:05.874Z,13.57
2018-03-20T05:00:33.673Z,16.10
2018-03-20T05:03:01.243Z,13.30
2018-03-20T05:05:28.901Z,12.93
2018-03-20T05:07:56.770Z,12.70
2018-03-20T05:10:24.533Z,12.50
2018-03-20T05:12:52.113Z,13.97
2018-03-20T05:15:19.957Z,13.30
2018-03-20T05:17:48.899Z,12.63
2018-03-20T05:23:44.714Z,12.87
2018-03-20T05:26:13.085Z,11.83
2018-03-20T05:28:41.458Z,12.17
2018-03-20T05:31:10.137Z,12.17
2018-03-20T05:33:37.609Z,12.40
2018-03-20T05:36:05.900Z,12.20
2018-03-20T05:38:33.845Z,11.80
2018-03-20T05:41:01.511Z,12.03
2018-03-20T05:43:29.749Z,12.40
2018-03-20T05:45:57.242Z,11.57
2018-03-20T05:48:31.201Z,12.77
2018-03-20T05:51:15.502Z,13.30
2018-03-20T05:53:43.058Z,13.30
2018-03-20T05:56:10.617Z,13.67
2018-03-20T05:58:38.213Z,12.90
2018-03-20T06:01:06.606Z,13.63
2018-03-20T06:03:34.074Z,13.10
2018-03-20T06:06:01.542Z,13.80
2018-03-20T06:08:29.020Z,13.57
2018-03-20T06:10:56.522Z,14.40
2018-03-20T06:13:24.106Z,18.13
2018-03-20T06:15:51.610Z,19.20
2018-03-20T06:18:19.881Z,16.93
2018-03-20T06:20:47.434Z,18.30
2018-03-20T06:23:15.130Z,16.83
2018-03-20T06:25:42.607Z,17.57
2018-03-20T06:28:10.083Z,19.10
2018-03-20T06:30:37.689Z,18.30
2018-03-20T06:33:05.934Z,18.73
2018-03-20T06:35:33.437Z,18.00
2018-03-20T06:38:01.939Z,17.13
2018-03-20T06:40:30.401Z,17.73
2018-03-20T06:42:58.074Z,18.37
2018-03-20T06:45:25.598Z,16.00
2018-03-20T06:47:53.156Z,15.87
2018-03-20T06:50:20.774Z,13.87
2018-03-20T06:52:48.433Z,13.83
2018-03-20T06:55:16.046Z,13.87
2018-03-20T06:57:43.711Z,13.60
2018-03-20T07:00:11.374Z,14.03
2018-03-20T07:02:39.752Z,14.50
2018-03-20T07:05:08.018Z,13.17
2018-03-20T07:07:35.486Z,12.37
2018-03-20T07:10:03.730Z,12.43
2018-03-20T07:12:31.243Z,14.87
2018-03-20T07:14:58.738Z,13.63
2018-03-20T07:17:26.590Z,13.23
2018-03-20T07:19:54.154Z,13.50
2018-03-20T07:22:21.671Z,13.30
2018-03-20T07:24:50.243Z,13.20
2018-03-20T07:27:18.477Z,13.90
2018-03-20T07:29:45.954Z,11.77
2018-03-20T07:32:13.646Z,12.20
2018-03-20T07:34:41.932Z,12.73
2018-03-20T07:37:09.871Z,11.73
2018-03-20T07:39:37.354Z,13.17
2018-03-20T07:42:04.889Z,13.00
2018-03-20T07:44:32.453Z,14.23
2018-03-20T07:46:59.926Z,14.07
2018-03-20T07:49:28.535Z,12.87
2018-03-20T07:51:56.010Z,11.87
2018-03-20T07:54:23.509Z,11.63
2018-03-20T07:56:51.269Z,11.33
2018-03-20T07:59:19.037Z,11.87
2018-03-20T08:01:46.846Z,11.37
2018-03-20T08:04:14.463Z,12.20
2018-03-20T08:06:42.094Z,11.80
2018-03-20T08:09:09.990Z,10.43
2018-03-20T08:11:37.462Z,11.53
2018-03-20T08:14:05.714Z,11.07
2018-03-20T08:16:33.261Z,11.73
2018-03-20T08:19:00.998Z,10.80
2018-03-20T08:21:28.555Z,10.83
2018-03-20T08:23:56.370Z,10.20
2018-03-20T08:26:23.929Z,9.50
2018-03-20T08:28:51.842Z,10.07
2018-03-20T08:31:19.434Z,8.80
2018-03-20T08:33:46.925Z,9.37
2018-03-20T08:36:15.201Z,8.20
2018-03-20T08:38:42.954Z,8.40
2018-03-20T08:41:10.817Z,8.97
2018-03-20T08:43:38.383Z,9.47
2018-03-20T08:46:07.529Z,7.80
2018-03-20T08:48:34.995Z,8.87
2018-03-20T08:51:02.474Z,8.30
2018-03-20T08:53:30.074Z,8.47
2018-03-20T08:55:58.330Z,7.73
2018-03-20T08:58:25.798Z,7.83
2018-03-20T09:00:54.201Z,7.90
2018-03-20T09:03:21.723Z,7.13
2018-03-20T09:05:50.562Z,7.77
2018-03-20T09:08:18.021Z,7.57
2018-03-20T09:10:45.709Z,6.93
2018-03-20T09:13:13.175Z,7.80
2018-03-20T09:15:40.747Z,7.17
2018-03-20T09:18:08.321Z,6.80
2018-03-20T09:20:35.861Z,7.60
2018-03-20T09:23:03.621Z,6.37
2018-03-20T09:25:31.082Z,6.97
2018-03-20T09:27:58.542Z,6.87
2018-03-20T09:30:26.089Z,6.50
2018-03-20T09:32:53.653Z,6.50
2018-03-20T09:35:21.643Z,6.67
2018-03-20T09:37:49.180Z,7.27
2018-03-20T09:40:17.557Z,6.37
2018-03-20T09:42:45.159Z,6.40
2018-03-20T09:45:12.679Z,7.70
2018-03-20T09:47:40.201Z,6.60
2018-03-20T09:50:08.451Z,7.07
2018-03-20T09:52:36.078Z,7.43
2018-03-20T09:55:04.457Z,6.90
2018-03-20T09:57:33.035Z,6.47
2018-03-20T10:00:00.615Z,6.20
2018-03-20T10:02:28.970Z,5.97
2018-03-20T10:04:56.633Z,6.20
2018-03-20T10:07:24.095Z,6.10
2018-03-20T10:09:52.486Z,6.20
2018-03-20T10:12:20.849Z,6.30
2018-03-20T10:14:48.409Z,6.07
2018-03-20T10:17:15.965Z,6.13
2018-03-20T10:19:43.448Z,7.07
2018-03-20T10:22:11.681Z,6.87
2018-03-20T10:24:39.141Z,6.37
2018-03-20T10:27:06.637Z,6.47
2018-03-20T10:29:35.107Z,6.47
2018-03-20T10:32:03.538Z,6.10
2018-03-20T10:34:31.035Z,6.47
2018-03-20T10:36:58.595Z,6.83
2018-03-20T10:39:27.281Z,6.77
2018-03-20T10:41:55.646Z,6.83
2018-03-20T10:44:23.429Z,7.27
2018-03-20T10:46:50.914Z,6.47
2018-03-20T10:49:18.378Z,6.37
2018-03-20T10:51:45.895Z,7.47
2018-03-20T10:54:14.165Z,7.73
2018-03-20T10:56:41.866Z,7.07
2018-03-20T10:59:09.390Z,6.63
2018-03-20T11:01:43.306Z,7.13
2018-03-20T11:04:11.603Z,7.50
2018-03-20T11:06:39.243Z,7.00
2018-03-20T11:09:07.809Z,8.50
2018-03-20T11:11:35.837Z,8.40
2018-03-20T11:14:03.380Z,7.93
2018-03-20T11:16:30.842Z,7.87
2018-03-20T11:18:59.272Z,7.80
2018-03-20T11:21:26.834Z,7.90
2018-03-20T11:23:54.476Z,8.37
2018-03-20T11:26:21.955Z,8.23
2018-03-20T11:28:49.418Z,8.83
2018-03-20T11:31:17.709Z,9.33
2018-03-20T11:33:45.942Z,9.70
2018-03-20T11:36:13.750Z,10.03
2018-03-20T11:38:41.228Z,10.13
2018-03-20T11:41:08.751Z,10.70
2018-03-20T11:43:39.791Z,10.03
2018-03-20T11:46:08.175Z,9.60
2018-03-20T11:48:36.406Z,9.87
2018-03-20T11:51:03.899Z,10.03
2018-03-20T11:53:31.408Z,10.00
2018-03-20T11:55:58.910Z,10.87
2018-03-20T11:58:26.487Z,11.23
2018-03-20T12:00:54.963Z,10.40
2018-03-20T12:03:23.434Z,10.53
2018-03-20T12:05:52.123Z,9.67
2018-03-20T12:08:32.922Z,9.97
2018-03-20T12:11:00.615Z,10.70
2018-03-20T12:13:28.090Z,10.53
2018-03-20T12:15:55.671Z,9.60
2018-03-20T12:18:23.275Z,10.03
2018-03-20T12:20:50.777Z,9.90
2018-03-20T12:23:18.275Z,10.43
2018-03-20T12:25:45.742Z,9.77
2018-03-20T12:28:13.243Z,9.60
2018-03-20T12:30:40.908Z,10.33
2018-03-20T12:33:08.814Z,9.70
2018-03-20T12:35:36.459Z,9.50
2018-03-20T12:38:04.758Z,9.73
2018-03-20T12:40:32.383Z,10.43
2018-03-20T12:42:59.946Z,9.50
2018-03-20T12:45:27.510Z,10.37
2018-03-20T12:47:55.270Z,9.93
2018-03-20T12:50:22.738Z,10.00
2018-03-20T12:52:53.565Z,9.50
2018-03-20T12:55:21.140Z,9.50
2018-03-20T12:57:49.740Z,10.10
2018-03-20T13:00:18.294Z,10.03
2018-03-20T13:02:46.058Z,10.57
2018-03-20T13:05:13.732Z,10.50
2018-03-20T13:07:41.977Z,10.63
2018-03-20T13:10:09.454Z,10.87
2018-03-20T13:12:36.990Z,11.33
2018-03-20T13:15:04.717Z,11.63
2018-03-20T13:17:32.338Z,11.30
2018-03-20T13:19:59.939Z,11.90
2018-03-20T13:22:27.563Z,11.80
2018-03-20T13:24:55.320Z,11.80
2018-03-20T13:27:22.793Z,11.07
2018-03-20T13:29:51.158Z,11.73
2018-03-20T13:32:18.922Z,10.83
2018-03-20T13:34:46.591Z,10.90
2018-03-20T13:37:14.905Z,11.30
2018-03-20T13:39:42.730Z,11.37
2018-03-20T13:42:10.286Z,10.17
2018-03-20T13:44:37.886Z,10.53
2018-03-20T13:47:06.701Z,10.17
2018-03-20T13:49:34.174Z,10.40
2018-03-20T13:52:01.671Z,10.70
2018-03-20T13:54:30.033Z,9.83
2018-03-20T13:56:57.789Z,10.93
2018-03-20T13:59:25.356Z,10.10
2018-03-20T14:01:53.110Z,10.27
2018-03-20T14:04:20.778Z,10.50
2018-03-20T14:06:48.269Z,11.43
2018-03-20T14:09:16.718Z,10.83
2018-03-20T14:11:44.280Z,11.13
2018-03-20T14:14:12.556Z,11.80
2018-03-20T14:16:40.921Z,11.13
2018-03-20T14:19:08.574Z,12.00
2018-03-20T14:21:36.038Z,12.00
2018-03-20T14:24:03.602Z,11.73
2018-03-20T14:26:31.137Z,12.77
2018-03-20T14:28:58.732Z,13.20
2018-03-20T14:31:27.022Z,12.47
2018-03-20T14:33:55.380Z,12.33
2018-03-20T14:36:23.168Z,12.73
2018-03-20T14:38:51.114Z,12.80
2018-03-20T14:41:18.979Z,12.67
2018-03-20T14:43:46.523Z,13.67
2018-03-20T14:46:14.139Z,13.67
2018-03-20T14:48:41.767Z,14.17
2018-03-20T14:51:09.234Z,13.87
2018-03-20T14:53:37.463Z,15.33
2018-03-20T14:56:05.067Z,15.10
2018-03-20T14:58:33.532Z,15.30
2018-03-20T15:01:01.303Z,14.33
2018-03-20T15:03:29.673Z,14.40
2018-03-20T15:05:57.347Z,16.07
2018-03-20T15:08:25.592Z,15.23
2018-03-20T15:10:53.054Z,13.63
2018-03-20T15:13:20.536Z,14.90
2018-03-20T15:15:48.821Z,15.83
2018-03-20T15:18:17.250Z,14.90
2018-03-20T15:20:44.802Z,13.67
2018-03-20T15:23:12.267Z,13.10
2018-03-20T15:25:40.066Z,12.23
2018-03-20T15:28:07.541Z,12.47
2018-03-20T15:30:35.775Z,12.50
2018-03-20T15:33:03.242Z,12.27
2018-03-20T15:35:31.518Z,12.80
2018-03-20T15:37:59.194Z,12.13
2018-03-20T15:40:26.758Z,12.77
2018-03-20T15:42:54.990Z,13.60
2018-03-20T15:45:22.594Z,13.43
2018-03-20T15:47:50.865Z,13.63
2018-03-20T15:50:19.117Z,13.30
2018-03-20T15:52:46.582Z,14.27
2018-03-20T15:55:14.354Z,14.13
2018-03-20T15:57:41.927Z,12.73
2018-03-20T16:00:10.242Z,12.33
2018-03-20T16:02:38.066Z,11.40
2018-03-20T16:05:05.633Z,11.37
2018-03-20T16:07:33.887Z,10.30
2018-03-20T16:10:01.354Z,10.33
2018-03-20T16:12:28.829Z,10.30
2018-03-20T16:14:57.067Z,10.13
2018-03-20T16:17:24.654Z,10.37
2018-03-20T16:19:52.158Z,9.43
2018-03-20T16:22:19.685Z,10.40
2018-03-20T16:24:47.911Z,9.93
2018-03-20T16:27:15.377Z,10.80
2018-03-20T16:29:42.919Z,11.57
2018-03-20T16:32:11.251Z,10.13
2018-03-20T16:34:39.513Z,10.07
2018-03-20T16:37:06.973Z,9.73
2018-03-20T16:39:34.547Z,10.97
2018-03-20T16:42:02.834Z,11.80
2018-03-20T16:44:31.118Z,11.60
2018-03-20T16:46:59.359Z,12.20
2018-03-20T16:49:26.818Z,13.13
2018-03-20T16:51:54.346Z,12.30
2018-03-20T16:54:21.997Z,12.77
2018-03-20T16:56:49.480Z,12.57
2018-03-20T16:59:17.197Z,14.53
2018-03-20T17:01:45.567Z,13.57
2018-03-20T17:04:13.441Z,12.73
2018-03-20T17:06:40.954Z,12.53
2018-03-20T17:09:08.814Z,12.53
2018-03-20T17:11:36.383Z,12.00
2018-03-20T17:14:04.209Z,12.23
2018-03-20T17:16:32.451Z,13.40
2018-03-20T17:19:00.037Z,13.83
2018-03-20T17:21:28.624Z,12.10
2018-03-20T17:23:56.857Z,13.97
2018-03-20T17:26:24.328Z,13.00
2018-03-20T17:28:51.853Z,13.83
2018-03-20T17:31:19.313Z,14.10
2018-03-20T17:33:46.782Z,13.80
2018-03-20T17:36:14.485Z,13.17
2018-03-20T17:38:42.402Z,14.07
2018-03-20T17:41:10.215Z,13.47
2018-03-20T17:43:37.687Z,14.03
2018-03-20T17:46:06.067Z,14.80
2018-03-20T17:48:34.383Z,15.70
2018-03-20T17:51:01.897Z,14.70
2018-03-20T17:53:29.559Z,15.73
2018-03-20T17:55:57.030Z,15.93
2018-03-20T17:58:25.309Z,14.83
2018-03-20T18:00:55.132Z,14.43
2018-03-20T18:03:22.801Z,12.93
2018-03-20T18:05:51.035Z,12.30
2018-03-20T18:08:18.602Z,12.07
2018-03-20T18:10:46.083Z,12.27
2018-03-20T18:13:14.317Z,11.77
2018-03-20T18:15:42.118Z,11.93
2018-03-20T18:18:09.656Z,12.23
2018-03-20T18:20:37.262Z,11.77
2018-03-20T18:23:05.532Z,12.87
2018-03-20T18:25:34.043Z,14.37
2018-03-20T18:28:01.615Z,13.93
2018-03-20T18:30:29.819Z,14.20
2018-03-20T18:32:57.507Z,15.13
2018-03-20T18:35:24.982Z,14.70
2018-03-20T18:37:54.209Z,16.37
2018-03-20T18:40:21.825Z,18.17
2018-03-20T18:42:49.392Z,19.93
2018-03-20T18:45:17.700Z,20.00
2018-03-20T18:47:45.531Z,19.93
2018-03-20T18:50:13.114Z,21.00
2018-03-20T18:52:40.645Z,20.77
2018-03-20T18:55:08.406Z,20.90
2018-03-20T18:57:36.227Z,19.50
2018-03-20T19:00:03.851Z,19.53
2018-03-20T19:02:31.815Z,20.10
2018-03-20T19:04:59.289Z,19.90
2018-03-20T19:07:27.641Z,19.60
2018-03-20T19:09:55.528Z,16.63
2018-03-20T19:12:23.086Z,16.87
2018-03-20T19:14:50.589Z,16.77
2018-03-20T19:17:18.127Z,18.87
2018-03-20T19:19:46.687Z,20.13
2018-03-20T19:22:14.359Z,19.27
2018-03-20T19:24:42.721Z,17.33
2018-03-20T19:27:10.438Z,16.47
2018-03-20T19:29:37.956Z,16.77
2018-03-20T19:32:05.635Z,18.27
2018-03-20T19:34:33.628Z,18.43
2018-03-20T19:37:01.278Z,17.87
2018-03-20T19:39:28.746Z,18.67
2018-03-20T19:41:56.775Z,18.63
2018-03-20T19:44:24.375Z,18.30
2018-03-20T19:46:51.983Z,20.23
2018-03-20T19:49:19.575Z,18.87
2018-03-20T19:51:47.822Z,19.17
2018-03-20T19:54:15.294Z,19.70
2018-03-20T19:56:42.830Z,18.80
2018-03-20T19:59:10.643Z,18.47
2018-03-20T20:01:38.986Z,16.53
2018-03-20T20:04:06.528Z,16.50
2018-03-20T20:06:34.149Z,17.70
2018-03-20T20:09:02.419Z,17.57
2018-03-20T20:11:30.781Z,18.33
2018-03-20T20:13:58.405Z,17.97
2018-03-20T20:16:26.178Z,17.83
2018-03-20T20:18:53.765Z,17.73
2018-03-20T20:21:21.842Z,19.33
2018-03-20T20:23:49.322Z,19.37
2018-03-20T20:26:17.570Z,17.57
2018-03-20T20:28:45.348Z,17.10
2018-03-20T20:31:13.825Z,16.73
2018-03-20T20:33:41.605Z,16.97
2018-03-20T20:36:09.974Z,18.60
2018-03-20T20:38:37.642Z,17.60
2018-03-20T20:41:06.322Z,19.40
2018-03-20T20:43:33.874Z,21.03
2018-03-20T20:46:01.995Z,21.30
2018-03-20T20:48:29.862Z,22.70
2018-03-20T20:50:57.497Z,21.03
2018-03-20T20:53:25.876Z,21.70
2018-03-20T20:55:53.373Z,20.77
2018-03-20T20:58:20.874Z,19.97
2018-03-20T21:00:48.654Z,18.70
2018-03-20T21:03:17.029Z,18.70
2018-03-20T21:05:44.674Z,31.80
2018-03-20T21:08:12.309Z,20.87
2018-03-20T21:10:39.778Z,21.37
2018-03-20T21:13:07.571Z,21.10
2018-03-20T21:15:35.179Z,20.03
2018-03-20T21:18:02.898Z,20.20
2018-03-20T21:20:30.382Z,18.07
2018-03-20T21:22:57.871Z,18.90
2018-03-20T21:25:25.575Z,18.83
2018-03-20T21:27:53.088Z,19.03
2018-03-20T21:30:20.600Z,28.23
2018-03-20T21:32:48.453Z,26.37
2018-03-20T21:35:16.005Z,27.17
2018-03-20T21:37:43.574Z,23.57
2018-03-20T21:40:11.133Z,23.50
2018-03-20T21:42:38.704Z,23.17
2018-03-20T21:45:07.082Z,20.70
2018-03-20T21:47:35.412Z,21.43
2018-03-20T21:50:03.326Z,21.87
2018-03-20T21:52:31.699Z,22.70
2018-03-20T21:55:00.009Z,22.07
2018-03-20T21:57:27.649Z,23.80
2018-03-20T21:59:55.910Z,27.07
2018-03-20T22:02:23.422Z,27.70
2018-03-20T22:04:51.345Z,27.57
2018-03-20T22:07:20.047Z,28.53
2018-03-20T22:09:47.651Z,23.60
2018-03-20T22:12:15.451Z,20.80
2018-03-20T22:14:43.011Z,21.70
2018-03-20T22:17:10.902Z,21.03
2018-03-20T22:19:38.393Z,22.03
2018-03-20T22:22:06.257Z,22.30
2018-03-20T22:27:07.749Z,21.87
2018-03-20T22:29:35.238Z,23.23
2018-03-20T22:32:03.658Z,21.10
2018-03-20T22:34:31.302Z,22.23
2018-03-20T22:36:58.819Z,22.83
2018-03-20T22:39:26.292Z,21.63
2018-03-20T22:41:53.774Z,20.43
2018-03-20T22:44:22.029Z,19.93
2018-03-20T22:46:50.301Z,20.27
2018-03-20T22:49:18.369Z,19.97
2018-03-20T22:51:46.178Z,22.00
2018-03-20T22:54:13.803Z,22.17
2018-03-20T22:56:41.570Z,19.90
2018-03-20T22:59:09.325Z,19.20
2018-03-20T23:01:36.999Z,18.30
2018-03-20T23:04:05.354Z,18.43
2018-03-20T23:06:33.029Z,18.20
2018-03-20T23:09:00.612Z,18.90
2018-03-20T23:11:29.079Z,19.27
2018-03-20T23:13:57.350Z,17.90
2018-03-20T23:16:25.409Z,18.10
2018-03-20T23:18:52.978Z,19.10
2018-03-20T23:21:20.541Z,18.93
2018-03-20T23:23:48.785Z,18.27
2018-03-20T23:26:16.395Z,19.90
2018-03-20T23:28:44.644Z,21.47
2018-03-20T23:31:12.309Z,18.93
2018-03-20T23:33:40.069Z,20.03
2018-03-20T23:36:08.046Z,21.10
2018-03-20T23:38:35.910Z,22.10
2018-03-20T23:41:03.417Z,21.77
2018-03-20T23:43:31.147Z,20.27
2018-03-20T23:45:59.418Z,20.63
2018-03-20T23:48:27.183Z,21.57
2018-03-20T23:50:55.423Z,22.47
2018-03-20T23:53:22.890Z,23.23
2018-03-20T23:55:50.450Z,22.70
2018-03-20T23:58:19.451Z,22.03
